メインページ
METAR-TAF:

METAR-TAF

空港 :

ロンドン・ヒースロー空港, イングランド

緯度: 51-29N, 経度: 000-27W, 海抜: 24m

現時点の気象観測

当レポートは31分前の11:20(UTC)に作成
の風 4kt、西から北東の間で変化する
気温 23°C
湿度 53%
気圧 1026 hPa
視程10km以上
高度3700ftの千切れ雲あり

METAR: EGLL 241120Z AUTO 35004KT 280V040 9999 BKN037 23/13 Q1026 NOSIG

時間: 12:51 (11:51 UTC)

予報

当レポートは52分前の10:59(UTC)に作成
予報は24日の 12時(UTC)から 25日の 18時(UTC)まで有効
の風 4kt
視程10km以上
高度4000ftの雲は散在している
25日の 03時(UTC)から 25日の 08時(UTC)まで一時的に
視程: 7000m

TAF: EGLL 241059Z 2412/2518 35004KT 9999 SCT040 TEMPO 2503/2508 7000

4,000以上の空港の気象観測と天気予報(METAR報とTAF報)

利用可能な観測所は地図上に黄色い丸と赤い丸で示す。

丸の上にカーソルを重ねると観測所名を参照できる。

次にクリックすると気象観測と天気予報を参照できる。

マップの切り替え:黒色「×」印の緑ボタンをクリックして拡大、「-」印の緑ボタンをクリックして縮小、緑色の三角印をクリックして隣りの地図に切り替え


METAR-TAF: